createdAt,value
2023-03-22T00:00:24.058Z,79.44
2023-03-22T00:04:51.657Z,79.70
2023-03-22T00:09:00.707Z,79.53
2023-03-22T00:13:10.591Z,79.78
2023-03-22T00:17:18.552Z,79.57
2023-03-22T00:21:26.990Z,80.02
2023-03-22T00:25:34.723Z,80.22
2023-03-22T00:29:42.507Z,80.17
2023-03-22T00:33:49.605Z,80.25
2023-03-22T00:38:06.042Z,80.51
2023-03-22T00:42:14.313Z,80.64
2023-03-22T00:46:23.612Z,80.32
2023-03-22T00:50:31.680Z,80.66
2023-03-22T00:54:39.380Z,80.56
2023-03-22T00:58:47.287Z,80.35
2023-03-22T01:02:59.875Z,80.66
2023-03-22T01:07:08.407Z,80.26
2023-03-22T01:11:16.960Z,80.53
2023-03-22T01:15:25.036Z,80.60
2023-03-22T01:19:33.095Z,80.58
2023-03-22T01:23:41.461Z,80.66
2023-03-22T01:27:49.749Z,80.74
2023-03-22T01:31:59.194Z,80.63
2023-03-22T01:36:08.882Z,80.60
2023-03-22T01:40:17.881Z,80.90
2023-03-22T01:44:27.022Z,80.61
2023-03-22T01:48:37.303Z,81.12
2023-03-22T01:52:45.320Z,81.06
2023-03-22T01:56:53.602Z,81.01
2023-03-22T02:01:02.125Z,81.16
2023-03-22T02:05:12.537Z,80.54
2023-03-22T02:09:22.150Z,80.70
2023-03-22T02:13:51.483Z,80.76
2023-03-22T02:18:11.812Z,80.93
2023-03-22T02:22:50.342Z,80.95
2023-03-22T02:27:29.005Z,80.60
2023-03-22T02:32:00.240Z,80.99
2023-03-22T02:36:37.322Z,80.86
2023-03-22T02:40:49.128Z,80.80
2023-03-22T02:45:05.097Z,80.69
2023-03-22T02:49:19.825Z,80.71
2023-03-22T02:53:35.852Z,80.75
2023-03-22T02:57:49.148Z,80.67
2023-03-22T03:01:58.551Z,80.41
2023-03-22T03:06:10.054Z,80.44
2023-03-22T03:10:20.347Z,80.50
2023-03-22T03:14:29.798Z,80.69
2023-03-22T03:18:45.001Z,80.55
2023-03-22T03:22:59.478Z,80.60
2023-03-22T03:27:09.904Z,81.04
2023-03-22T03:31:31.809Z,81.60
2023-03-22T03:35:41.443Z,81.57
2023-03-22T03:39:57.332Z,82.07
2023-03-22T03:44:06.508Z,81.79
2023-03-22T03:48:17.846Z,82.06
2023-03-22T03:52:26.211Z,82.03
2023-03-22T03:56:34.108Z,81.82
2023-03-22T04:00:42.099Z,82.10
2023-03-22T04:04:49.919Z,81.89
2023-03-22T04:08:58.121Z,81.62
2023-03-22T04:13:06.345Z,82.16
2023-03-22T04:17:14.814Z,81.97
2023-03-22T04:21:22.981Z,81.98
2023-03-22T04:25:34.129Z,82.03
2023-03-22T04:29:48.929Z,82.10
2023-03-22T04:33:56.705Z,82.04
2023-03-22T04:38:04.628Z,82.42
2023-03-22T04:42:12.587Z,82.42
2023-03-22T04:46:21.667Z,82.64
2023-03-22T04:50:30.137Z,82.69
2023-03-22T04:54:38.283Z,82.68
2023-03-22T04:58:47.454Z,82.86
2023-03-22T05:02:55.264Z,82.48
2023-03-22T05:07:03.427Z,82.95
2023-03-22T05:11:14.302Z,83.32
2023-03-22T05:15:22.271Z,83.27
2023-03-22T05:19:30.315Z,83.04
2023-03-22T05:23:38.367Z,82.86
2023-03-22T05:27:45.893Z,82.87
2023-03-22T05:31:53.891Z,83.02
2023-03-22T05:36:02.332Z,82.85
2023-03-22T05:40:13.321Z,83.09
2023-03-22T05:44:21.688Z,83.27
2023-03-22T05:48:29.488Z,83.22
2023-03-22T05:52:38.652Z,83.23
2023-03-22T05:56:47.415Z,83.27
2023-03-22T06:00:56.072Z,83.26
2023-03-22T06:05:03.485Z,82.96
2023-03-22T06:09:17.581Z,82.81
2023-03-22T06:13:26.308Z,83.34
2023-03-22T06:17:34.025Z,83.30
2023-03-22T06:21:42.804Z,83.48
2023-03-22T06:25:50.522Z,83.58
2023-03-22T06:29:59.063Z,83.30
2023-03-22T06:34:07.219Z,83.35
2023-03-22T06:38:14.840Z,82.65
2023-03-22T06:42:23.248Z,82.06
2023-03-22T06:46:31.458Z,81.97
2023-03-22T06:50:44.091Z,81.61
2023-03-22T06:54:53.241Z,81.23
2023-03-22T06:59:01.536Z,81.00
2023-03-22T07:03:09.619Z,80.45
2023-03-22T07:07:17.511Z,80.55
2023-03-22T07:11:26.219Z,80.23
2023-03-22T07:15:34.715Z,79.85
2023-03-22T07:19:43.826Z,79.66
2023-03-22T07:23:54.821Z,79.49
2023-03-22T07:28:04.454Z,79.13
2023-03-22T07:32:12.909Z,78.93
2023-03-22T07:36:26.001Z,78.43
2023-03-22T07:40:34.034Z,77.95
2023-03-22T07:44:43.459Z,77.69
2023-03-22T07:48:51.730Z,77.17
2023-03-22T07:52:59.117Z,76.52
2023-03-22T07:57:06.910Z,76.05
2023-03-22T08:01:18.467Z,75.41
2023-03-22T08:05:26.218Z,74.72
2023-03-22T08:09:33.685Z,74.19
2023-03-22T08:13:40.996Z,73.78
2023-03-22T08:17:50.333Z,74.09
2023-03-22T08:21:58.066Z,73.80
2023-03-22T08:26:07.140Z,73.95
2023-03-22T08:30:18.271Z,73.01
2023-03-22T08:34:28.776Z,72.96
2023-03-22T08:38:36.259Z,72.22
2023-03-22T08:42:44.068Z,71.92
2023-03-22T08:46:51.682Z,70.56
2023-03-22T08:50:59.891Z,69.69
2023-03-22T08:55:09.039Z,68.90
2023-03-22T08:59:17.530Z,67.55
2023-03-22T09:03:25.633Z,66.36
2023-03-22T09:07:34.482Z,66.17
2023-03-22T09:11:45.102Z,66.01
2023-03-22T09:15:54.208Z,65.85
2023-03-22T09:20:12.144Z,66.36
2023-03-22T09:24:20.874Z,66.03
2023-03-22T09:28:29.169Z,65.44
2023-03-22T09:32:36.999Z,64.97
2023-03-22T09:36:45.015Z,64.60
2023-03-22T09:41:01.210Z,64.81
2023-03-22T09:45:13.963Z,64.98
2023-03-22T09:49:24.290Z,64.54
2023-03-22T09:53:34.456Z,64.57
2023-03-22T09:57:42.333Z,64.61
2023-03-22T10:01:53.932Z,64.24
2023-03-22T10:06:06.470Z,63.25
2023-03-22T10:10:18.368Z,63.46
2023-03-22T10:14:32.998Z,63.50
2023-03-22T10:18:47.361Z,63.72
2023-03-22T10:22:56.156Z,64.15
2023-03-22T10:27:13.570Z,63.89
2023-03-22T10:31:22.874Z,63.88
2023-03-22T10:35:35.355Z,64.21
2023-03-22T10:39:46.552Z,63.18
2023-03-22T10:43:56.760Z,63.88
2023-03-22T10:48:09.346Z,63.98
2023-03-22T10:52:28.814Z,64.08
2023-03-22T10:56:36.754Z,63.05
2023-03-22T11:00:49.748Z,62.81
2023-03-22T11:04:59.918Z,62.69
2023-03-22T11:09:17.025Z,62.58
2023-03-22T11:13:26.165Z,61.68
2023-03-22T11:17:36.224Z,61.20
2023-03-22T11:21:45.336Z,60.95
2023-03-22T11:25:54.284Z,60.15
2023-03-22T11:30:20.297Z,59.36
2023-03-22T11:34:31.904Z,58.65
2023-03-22T11:38:41.343Z,57.60
2023-03-22T11:42:50.619Z,56.43
2023-03-22T11:47:01.706Z,55.99
2023-03-22T11:51:12.640Z,55.45
2023-03-22T11:55:20.812Z,54.82
2023-03-22T11:59:30.611Z,54.23
2023-03-22T12:03:40.297Z,53.45
2023-03-22T12:07:50.070Z,53.10
2023-03-22T12:12:00.744Z,52.69
2023-03-22T12:16:11.093Z,52.11
2023-03-22T12:20:30.886Z,52.25
2023-03-22T12:24:40.033Z,52.27
2023-03-22T12:28:54.119Z,51.36
2023-03-22T12:33:03.368Z,50.10
2023-03-22T12:37:16.127Z,51.02
2023-03-22T12:41:28.513Z,50.40
2023-03-22T12:45:43.016Z,49.71
2023-03-22T12:49:58.380Z,48.25
2023-03-22T12:54:11.278Z,48.18
2023-03-22T12:58:22.405Z,48.08
2023-03-22T13:02:32.465Z,47.87
2023-03-22T13:07:01.844Z,49.04
2023-03-22T13:11:17.378Z,50.08
2023-03-22T13:15:41.960Z,50.03
2023-03-22T13:19:57.494Z,50.81
2023-03-22T13:24:24.607Z,51.37
2023-03-22T13:28:37.244Z,51.84
2023-03-22T13:32:54.576Z,51.98
2023-03-22T13:37:05.342Z,52.03
2023-03-22T13:41:22.897Z,51.36
2023-03-22T13:45:34.703Z,50.75
2023-03-22T13:49:53.325Z,49.87
2023-03-22T13:54:06.037Z,49.62
2023-03-22T13:58:15.512Z,48.59
2023-03-22T14:02:28.573Z,48.00
2023-03-22T14:06:43.648Z,47.60
2023-03-22T14:10:54.496Z,48.25
2023-03-22T14:15:06.853Z,47.54
2023-03-22T14:19:20.478Z,47.70
